Time;durP1;ratioP1;P1;durP2;ratioP2;P2;SDS_P1;SDS_P2;PMS_P1;PMS_P2;Temp;Humidity;BMP_temperature;BMP_pressure;BME280_temperature;BME280_humidity;BME280_pressure;Samples;Min_cycle;Max_cycle;Signal;HPM_P1;HPM_P2
2024/04/07 00:02:17;;;;;;;;;;;;;;;;;;5056637;28;20347;-83
2024/04/07 00:04:43;;;;;;;;;;;;;;;;;;5056327;28;20001;-83
2024/04/07 00:07:10;;;;;;;;;;;;;;;;;;5056167;28;19970;-81
2024/04/07 00:09:38;;;;;;;;;;;;;;;;;;5056575;28;19987;-81
2024/04/07 00:12:05;;;;;;;;;;;;;;;;;;5056419;28;19968;-83
2024/04/07 00:14:34;;;;;;;;;;;;;;;;;;5056253;28;19963;-81
2024/04/07 00:17:01;;;;;;;;;;;;;;;;;;5055541;28;20398;-82
2024/04/07 00:19:27;;;;;;;;;;;;;;;;;;5056234;28;20075;-84
2024/04/07 00:21:54;;;;;;;;;;;;;;;;;;5058225;28;20019;-81
2024/04/07 00:24:20;;;;;;;;;;;;;;;;;;5059792;28;20029;-81
2024/04/07 00:26:47;;;;;;;;;;;;;;;;;;5054810;28;19959;-81
2024/04/07 00:29:13;;;;;;;;;;;;;;;;;;5055969;28;19994;-82
2024/04/07 00:31:40;;;;;;;;;;;;;;;;;;5056052;28;19973;-83
2024/04/07 00:34:06;;;;;;;;;;;;;;;;;;5055844;28;20778;-83
2024/04/07 00:36:33;;;;;;;;;;;;;;;;;;5056230;28;20009;-83
2024/04/07 00:38:59;;;;;;;;;;;;;;;;;;5055311;28;19977;-82
2024/04/07 00:41:27;;;;;;;;;;;;;;;;;;5055347;28;19971;-82
2024/04/07 00:43:53;;;;;;;;;;;;;;;;;;5055347;28;20090;-82
2024/04/07 00:46:20;;;;;;;;;;;;;;;;;;5053902;28;20013;-82
2024/04/07 00:48:46;;;;;;;;;;;;;;;;;;5054735;28;19973;-81
2024/04/07 00:51:13;;;;;;;;;;;;;;;;;;5055878;28;20438;-83
2024/04/07 00:53:39;;;;;;;;;;;;;;;;;;5055633;28;20062;-82
2024/04/07 00:56:06;;;;;;;;;;;;;;;;;;5036777;28;19946;-82
2024/04/07 00:58:32;;;;;;;;;;;;;;;;;;5054130;28;20403;-81
2024/04/07 01:00:59;;;;;;;;;;;;;;;;;;5055639;28;19999;-80
2024/04/07 01:03:24;;;;;;;;;;;;;;;;;;5054816;28;20555;-81
2024/04/07 01:05:51;;;;;;;;;;;;;;;;;;5055221;28;20023;-83
2024/04/07 01:08:17;;;;;;;;;;;;;;;;;;5048297;28;20043;-81
2024/04/07 01:10:44;;;;;;;;;;;;;;;;;;5055157;28;19993;-83
2024/04/07 01:13:10;;;;;;;;;;;;;;;;;;5055160;28;20028;-81
2024/04/07 01:15:37;;;;;;;;;;;;;;;;;;5054831;28;20425;-82
2024/04/07 01:18:03;;;;;;;;;;;;;;;;;;5055235;28;20075;-82
2024/04/07 01:20:30;;;;;;;;;;;;;;;;;;5055331;28;20437;-81
2024/04/07 01:22:57;;;;;;;;;;;;;;;;;;5054891;28;19989;-81
2024/04/07 01:25:24;;;;;;;;;;;;;;;;;;5054886;28;19988;-82
2024/04/07 01:27:50;;;;;;;;;;;;;;;;;;5054779;28;20034;-81
2024/04/07 01:30:17;;;;;;;;;;;;;;;;;;5055409;28;20001;-83
2024/04/07 01:32:43;;;;;;;;;;;;;;;;;;5055517;28;20051;-82
2024/04/07 01:35:10;;;;;;;;;;;;;;;;;;5055496;28;19973;-83
2024/04/07 01:37:36;;;;;;;;;;;;;;;;;;5055147;28;19981;-83
2024/04/07 01:40:03;;;;;;;;;;;;;;;;;;5047404;28;20039;-86
2024/04/07 01:42:29;;;;;;;;;;;;;;;;;;5054803;28;20015;-82
2024/04/07 01:44:56;;;;;;;;;;;;;;;;;;5054866;28;19993;-82
2024/04/07 01:47:22;;;;;;;;;;;;;;;;;;5054910;28;19980;-84
2024/04/07 01:49:49;;;;;;;;;;;;;;;;;;5055438;28;20080;-82
2024/04/07 01:52:15;;;;;;;;;;;;;;;;;;5055361;28;19987;-82
2024/04/07 01:54:42;;;;;;;;;;;;;;;;;;5054761;28;20075;-83
2024/04/07 01:57:08;;;;;;;;;;;;;;;;;;5053584;28;19977;-82
2024/04/07 01:59:35;;;;;;;;;;;;;;;;;;5055396;28;20080;-81
2024/04/07 02:02:01;;;;;;;;;;;;;;;;;;5055277;28;19980;-83
2024/04/07 02:04:29;;;;;;;;;;;;;;;;;;5055624;28;19993;-82
2024/04/07 02:06:54;;;;;;;;;;;;;;;;;;5054568;28;20015;-83
2024/04/07 02:09:21;;;;;;;;;;;;;;;;;;5055093;28;20003;-83
2024/04/07 02:11:47;;;;;;;;;;;;;;;;;;5055291;28;20088;-83
2024/04/07 02:14:14;;;;;;;;;;;;;;;;;;5054059;28;20027;-81
2024/04/07 02:16:41;;;;;;;;;;;;;;;;;;5053301;28;19981;-80
2024/04/07 02:19:07;;;;;;;;;;;;;;;;;;5054963;28;20087;-82
2024/04/07 02:21:33;;;;;;;;;;;;;;;;;;5055114;28;19987;-81
2024/04/07 02:24:00;;;;;;;;;;;;;;;;;;5054741;28;20430;-82
2024/04/07 02:26:26;;;;;;;;;;;;;;;;;;5054583;28;20083;-82
2024/04/07 02:28:53;;;;;;;;;;;;;;;;;;5054525;28;20538;-80
2024/04/07 02:31:19;;;;;;;;;;;;;;;;;;5054328;28;20520;-83
2024/04/07 02:33:46;;;;;;;;;;;;;;;;;;5054465;28;19991;-84
2024/04/07 02:36:12;;;;;;;;;;;;;;;;;;5054773;28;20001;-81
2024/04/07 02:38:39;;;;;;;;;;;;;;;;;;5054180;28;19976;-84
2024/04/07 02:41:05;;;;;;;;;;;;;;;;;;5054049;28;19996;-83
2024/04/07 02:43:32;;;;;;;;;;;;;;;;;;5055064;28;20346;-83
2024/04/07 02:48:44;;;;;;;;;;;;;;;;;;5053691;28;20018;-84
2024/04/07 02:51:11;;;;;;;;;;;;;;;;;;5053542;28;19999;-82
2024/04/07 02:53:38;;;;;;;;;;;;;;;;;;5053622;28;19981;-81
2024/04/07 02:56:05;;;;;;;;;;;;;;;;;;5054371;28;19976;-83
2024/04/07 02:58:31;;;;;;;;;;;;;;;;;;5054268;28;19981;-84
2024/04/07 03:00:58;;;;;;;;;;;;;;;;;;5053921;28;20111;-80
2024/04/07 03:03:24;;;;;;;;;;;;;;;;;;5053526;28;19999;-83
2024/04/07 03:05:52;;;;;;;;;;;;;;;;;;5054069;28;20083;-84
2024/04/07 03:08:18;;;;;;;;;;;;;;;;;;5054159;28;20008;-82
2024/04/07 03:10:45;;;;;;;;;;;;;;;;;;5057932;28;20000;-82
2024/04/07 03:13:11;;;;;;;;;;;;;;;;;;5057908;28;20036;-84
2024/04/07 03:15:37;;;;;;;;;;;;;;;;;;5057179;28;20020;-84
2024/04/07 03:18:03;;;;;;;;;;;;;;;;;;5058549;28;19995;-82
2024/04/07 03:20:30;;;;;;;;;;;;;;;;;;5058737;28;20079;-83
2024/04/07 03:22:56;;;;;;;;;;;;;;;;;;5057562;28;19988;-83
2024/04/07 03:25:23;;;;;;;;;;;;;;;;;;5057370;28;20441;-83
2024/04/07 03:27:49;;;;;;;;;;;;;;;;;;5057336;28;19980;-85
2024/04/07 03:30:16;;;;;;;;;;;;;;;;;;5058074;28;20003;-84
2024/04/07 03:32:42;;;;;;;;;;;;;;;;;;5058171;28;19981;-83
2024/04/07 03:35:09;;;;;;;;;;;;;;;;;;5058348;28;20038;-83
2024/04/07 03:37:36;;;;;;;;;;;;;;;;;;5057342;28;19980;-82
2024/04/07 03:40:03;;;;;;;;;;;;;;;;;;5056507;28;20004;-83
2024/04/07 03:42:30;;;;;;;;;;;;;;;;;;5055294;28;20060;-83
2024/04/07 03:44:57;;;;;;;;;;;;;;;;;;5055770;28;20000;-82
2024/04/07 03:47:24;;;;;;;;;;;;;;;;;;5056440;28;19991;-82
2024/04/07 03:49:51;;;;;;;;;;;;;;;;;;5055934;28;19996;-82
2024/04/07 03:52:17;;;;;;;;;;;;;;;;;;5056434;28;20242;-82
2024/04/07 03:54:44;;;;;;;;;;;;;;;;;;5056783;28;20067;-84
2024/04/07 03:57:10;;;;;;;;;;;;;;;;;;5056118;28;20040;-82
2024/04/07 03:59:37;;;;;;;;;;;;;;;;;;5057062;28;20047;-83
2024/04/07 04:02:03;;;;;;;;;;;;;;;;;;5049276;28;19984;-83
2024/04/07 04:04:30;;;;;;;;;;;;;;;;;;5056893;28;20015;-82
2024/04/07 04:06:56;;;;;;;;;;;;;;;;;;5056739;28;19988;-84
2024/04/07 04:09:23;;;;;;;;;;;;;;;;;;5056956;28;20096;-81
2024/04/07 04:11:49;;;;;;;;;;;;;;;;;;5056384;28;20064;-82
2024/04/07 04:14:16;;;;;;;;;;;;;;;;;;5056586;28;20413;-82
2024/04/07 04:16:42;;;;;;;;;;;;;;;;;;5055101;28;19976;-82
2024/04/07 04:19:09;;;;;;;;;;;;;;;;;;5056341;28;20445;-82
2024/04/07 04:21:35;;;;;;;;;;;;;;;;;;5056625;28;20371;-84
2024/04/07 04:24:03;;;;;;;;;;;;;;;;;;5059684;28;19992;-84
2024/04/07 04:26:29;;;;;;;;;;;;;;;;;;5056107;28;19988;-83
2024/04/07 04:28:56;;;;;;;;;;;;;;;;;;5055669;28;19977;-82
2024/04/07 04:31:22;;;;;;;;;;;;;;;;;;5056864;28;20075;-83
2024/04/07 04:33:48;;;;;;;;;;;;;;;;;;5056519;28;20004;-84
2024/04/07 04:36:14;;;;;;;;;;;;;;;;;;5055925;28;19980;-84
2024/04/07 04:38:41;;;;;;;;;;;;;;;;;;5055245;28;20049;-84
2024/04/07 04:41:07;;;;;;;;;;;;;;;;;;5056870;28;19996;-83
2024/04/07 04:43:34;;;;;;;;;;;;;;;;;;5051452;28;19999;-80
2024/04/07 04:46:00;;;;;;;;;;;;;;;;;;5045220;28;19973;-84
2024/04/07 04:48:27;;;;;;;;;;;;;;;;;;5052400;28;20040;-83
2024/04/07 04:50:53;;;;;;;;;;;;;;;;;;5057470;28;20080;-84
2024/04/07 04:53:20;;;;;;;;;;;;;;;;;;5056909;28;20008;-84
2024/04/07 04:55:46;;;;;;;;;;;;;;;;;;5050965;28;20087;-85
2024/04/07 04:58:13;;;;;;;;;;;;;;;;;;5058368;28;20059;-83
2024/04/07 05:00:39;;;;;;;;;;;;;;;;;;5048366;28;19995;-83
2024/04/07 05:03:06;;;;;;;;;;;;;;;;;;5051437;28;20060;-83
2024/04/07 05:05:32;;;;;;;;;;;;;;;;;;5047485;28;20015;-80
2024/04/07 05:07:59;;;;;;;;;;;;;;;;;;5052102;28;19969;-81
2024/04/07 05:10:25;;;;;;;;;;;;;;;;;;5049023;28;20344;-82
2024/04/07 05:12:52;;;;;;;;;;;;;;;;;;5055105;28;20015;-83
2024/04/07 05:15:18;;;;;;;;;;;;;;;;;;5055913;28;19973;-82
2024/04/07 05:17:46;;;;;;;;;;;;;;;;;;5052410;28;19969;-82
2024/04/07 05:20:13;;;;;;;;;;;;;;;;;;5053883;28;20043;-82
2024/04/07 05:22:41;;;;;;;;;;;;;;;;;;5057559;28;19996;-81
2024/04/07 05:25:07;;;;;;;;;;;;;;;;;;5064247;28;20695;-81
2024/04/07 05:27:34;;;;;;;;;;;;;;;;;;5062007;28;19973;-80
2024/04/07 05:30:00;;;;;;;;;;;;;;;;;;5055145;28;20476;-81
2024/04/07 05:32:27;;;;;;;;;;;;;;;;;;5057355;28;19973;-82
2024/04/07 05:34:54;;;;;;;;;;;;;;;;;;5051916;28;19976;-82
2024/04/07 05:37:20;;;;;;;;;;;;;;;;;;5052371;28;19969;-83
2024/04/07 05:39:46;;;;;;;;;;;;;;;;;;5052389;28;19989;-81
2024/04/07 05:42:13;;;;;;;;;;;;;;;;;;5050856;28;20015;-83
2024/04/07 05:44:39;;;;;;;;;;;;;;;;;;5055855;28;19995;-82
2024/04/07 05:47:06;;;;;;;;;;;;;;;;;;5054084;28;20059;-82
2024/04/07 05:49:32;;;;;;;;;;;;;;;;;;5047681;28;20092;-84
2024/04/07 05:51:59;;;;;;;;;;;;;;;;;;5054396;28;20004;-85
2024/04/07 05:54:25;;;;;;;;;;;;;;;;;;5057843;28;19973;-84
2024/04/07 05:56:52;;;;;;;;;;;;;;;;;;5051106;28;20072;-83
2024/04/07 05:59:18;;;;;;;;;;;;;;;;;;5052562;28;19989;-85
2024/04/07 06:01:45;;;;;;;;;;;;;;;;;;5056823;28;20009;-84
2024/04/07 06:04:11;;;;;;;;;;;;;;;;;;5052983;28;19991;-84
2024/04/07 06:06:38;;;;;;;;;;;;;;;;;;5051412;28;20036;-84
2024/04/07 06:09:04;;;;;;;;;;;;;;;;;;5057274;28;19981;-85
2024/04/07 06:11:31;;;;;;;;;;;;;;;;;;5059827;28;20023;-85
2024/04/07 06:13:57;;;;;;;;;;;;;;;;;;5052399;28;19984;-83
2024/04/07 06:16:23;;;;;;;;;;;;;;;;;;5060007;28;20046;-84
2024/04/07 06:18:51;;;;;;;;;;;;;;;;;;5057299;28;19987;-83
2024/04/07 06:21:19;;;;;;;;;;;;;;;;;;5067015;28;20040;-84
2024/04/07 06:23:45;;;;;;;;;;;;;;;;;;5060721;28;20000;-83
2024/04/07 06:26:12;;;;;;;;;;;;;;;;;;5071418;28;19964;-85
2024/04/07 06:28:38;;;;;;;;;;;;;;;;;;5069340;28;21006;-83
2024/04/07 06:31:05;;;;;;;;;;;;;;;;;;5069311;28;19988;-83
2024/04/07 06:33:31;;;;;;;;;;;;;;;;;;5069698;28;19983;-84
2024/04/07 06:35:58;;;;;;;;;;;;;;;;;;5072051;28;19969;-83
2024/04/07 06:38:24;;;;;;;;;;;;;;;;;;5058407;28;20502;-83
2024/04/07 06:40:51;;;;;;;;;;;;;;;;;;5053739;28;19988;-84
2024/04/07 06:43:17;;;;;;;;;;;;;;;;;;5046820;28;20461;-84
2024/04/07 06:45:44;;;;;;;;;;;;;;;;;;5056064;28;20091;-84
2024/04/07 06:48:09;;;;;;;;;;;;;;;;;;5061192;28;19973;-83
2024/04/07 06:50:36;;;;;;;;;;;;;;;;;;5060949;28;20087;-84
2024/04/07 06:53:03;;;;;;;;;;;;;;;;;;5051331;28;20079;-83
2024/04/07 06:55:30;;;;;;;;;;;;;;;;;;5061218;28;19991;-84
2024/04/07 06:57:56;;;;;;;;;;;;;;;;;;5059335;28;19981;-84
2024/04/07 07:00:22;;;;;;;;;;;;;;;;;;5058578;28;20145;-83
2024/04/07 07:02:48;;;;;;;;;;;;;;;;;;5060511;28;20052;-84
2024/04/07 07:05:16;;;;;;;;;;;;;;;;;;5060660;28;20028;-84
2024/04/07 07:07:42;;;;;;;;;;;;;;;;;;5054474;28;20071;-84
2024/04/07 07:10:09;;;;;;;;;;;;;;;;;;5053025;28;20028;-84
2024/04/07 07:12:35;;;;;;;;;;;;;;;;;;5060881;28;19986;-83
2024/04/07 07:15:03;;;;;;;;;;;;;;;;;;5057444;28;20004;-83
2024/04/07 07:17:29;;;;;;;;;;;;;;;;;;5061577;28;19980;-85
2024/04/07 07:19:56;;;;;;;;;;;;;;;;;;5062352;28;19992;-84
2024/04/07 07:22:22;;;;;;;;;;;;;;;;;;5053286;28;20541;-83
2024/04/07 07:24:49;;;;;;;;;;;;;;;;;;5060911;28;20032;-85
2024/04/07 07:27:15;;;;;;;;;;;;;;;;;;5061938;28;20016;-84
2024/04/07 07:29:42;;;;;;;;;;;;;;;;;;5060902;28;20092;-84
2024/04/07 07:32:10;;;;;;;;;;;;;;;;;;5061644;28;20063;-84
2024/04/07 07:34:37;;;;;;;;;;;;;;;;;;5061366;28;19984;-84
2024/04/07 07:37:03;;;;;;;;;;;;;;;;;;5052763;28;20067;-84
2024/04/07 07:39:30;;;;;;;;;;;;;;;;;;5053551;28;20516;-84
2024/04/07 07:41:56;;;;;;;;;;;;;;;;;;5059489;28;20060;-84
2024/04/07 07:44:23;;;;;;;;;;;;;;;;;;5058188;28;19993;-83
2024/04/07 07:46:49;;;;;;;;;;;;;;;;;;5052709;28;19995;-83
2024/04/07 07:49:16;;;;;;;;;;;;;;;;;;5053801;28;20115;-83
2024/04/07 07:51:42;;;;;;;;;;;;;;;;;;5056590;28;19981;-84
2024/04/07 07:54:09;;;;;;;;;;;;;;;;;;5048702;28;19969;-84
2024/04/07 07:56:35;;;;;;;;;;;;;;;;;;5049747;28;19973;-84
2024/04/07 07:59:02;;;;;;;;;;;;;;;;;;5051006;28;19973;-83
2024/04/07 08:01:28;;;;;;;;;;;;;;;;;;5055067;28;19977;-85
2024/04/07 08:03:55;;;;;;;;;;;;;;;;;;5055695;28;20043;-83
2024/04/07 08:06:21;;;;;;;;;;;;;;;;;;5054544;28;19973;-83
2024/04/07 08:08:48;;;;;;;;;;;;;;;;;;5057021;28;20468;-83
2024/04/07 08:11:14;;;;;;;;;;;;;;;;;;5053159;28;19981;-83
2024/04/07 08:13:41;;;;;;;;;;;;;;;;;;5050073;28;20009;-83
2024/04/07 08:16:08;;;;;;;;;;;;;;;;;;5058542;28;20072;-85
2024/04/07 08:18:36;;;;;;;;;;;;;;;;;;5057319;28;19984;-84
2024/04/07 08:21:03;;;;;;;;;;;;;;;;;;5049869;28;20612;-83
2024/04/07 08:23:30;;;;;;;;;;;;;;;;;;5054368;28;19973;-84
2024/04/07 08:25:58;;;;;;;;;;;;;;;;;;5055264;28;19989;-84
2024/04/07 08:28:25;;;;;;;;;;;;;;;;;;5058909;28;19999;-83
2024/04/07 08:30:51;;;;;;;;;;;;;;;;;;5051454;28;20621;-84
2024/04/07 08:33:18;;;;;;;;;;;;;;;;;;5052716;28;20071;-85
2024/04/07 08:35:44;;;;;;;;;;;;;;;;;;5057067;28;20043;-84
2024/04/07 08:38:11;;;;;;;;;;;;;;;;;;5048237;28;20012;-83
2024/04/07 08:40:37;;;;;;;;;;;;;;;;;;5052277;28;19993;-84
2024/04/07 08:43:04;;;;;;;;;;;;;;;;;;5054934;28;20047;-83
2024/04/07 08:45:30;;;;;;;;;;;;;;;;;;5052145;28;20091;-84
2024/04/07 08:47:57;;;;;;;;;;;;;;;;;;5053966;28;20019;-84
2024/04/07 08:50:23;;;;;;;;;;;;;;;;;;5054960;28;19992;-84
2024/04/07 08:52:55;;;;;;;;;;;;;;;;;;5056615;28;20000;-83
2024/04/07 08:55:20;;;;;;;;;;;;;;;;;;5052851;28;20024;-83
2024/04/07 08:57:47;;;;;;;;;;;;;;;;;;5054759;28;19977;-83
2024/04/07 09:00:13;;;;;;;;;;;;;;;;;;5051144;28;20028;-84
2024/04/07 09:02:40;;;;;;;;;;;;;;;;;;5045994;28;19983;-84
2024/04/07 09:05:06;;;;;;;;;;;;;;;;;;5048458;28;19995;-85
2024/04/07 09:07:33;;;;;;;;;;;;;;;;;;5055603;28;20044;-83
2024/04/07 09:09:59;;;;;;;;;;;;;;;;;;5058611;28;20027;-84
2024/04/07 09:12:26;;;;;;;;;;;;;;;;;;5059417;28;20059;-84
2024/04/07 09:14:52;;;;;;;;;;;;;;;;;;5056553;28;20362;-85
2024/04/07 09:17:19;;;;;;;;;;;;;;;;;;5051733;28;20016;-84
2024/04/07 09:19:45;;;;;;;;;;;;;;;;;;5053004;28;19999;-84
2024/04/07 09:22:12;;;;;;;;;;;;;;;;;;5053858;28;20008;-85
2024/04/07 09:24:38;;;;;;;;;;;;;;;;;;5052613;28;19985;-85
2024/04/07 09:27:06;;;;;;;;;;;;;;;;;;5057099;28;19983;-85
2024/04/07 09:29:32;;;;;;;;;;;;;;;;;;5058579;28;20826;-84
2024/04/07 09:31:59;;;;;;;;;;;;;;;;;;5067355;28;19977;-82
2024/04/07 09:34:25;;;;;;;;;;;;;;;;;;5070942;28;20004;-84
2024/04/07 09:36:52;;;;;;;;;;;;;;;;;;5069187;28;19973;-84
2024/04/07 09:39:18;;;;;;;;;;;;;;;;;;5063491;28;20087;-85
2024/04/07 09:41:45;;;;;;;;;;;;;;;;;;5057724;28;20366;-83
2024/04/07 09:44:11;;;;;;;;;;;;;;;;;;5056311;28;20377;-85
2024/04/07 09:46:38;;;;;;;;;;;;;;;;;;5049808;28;19980;-87
2024/04/07 09:49:04;;;;;;;;;;;;;;;;;;5049165;28;20040;-84
2024/04/07 09:51:31;;;;;;;;;;;;;;;;;;5057888;28;19983;-86
2024/04/07 09:53:57;;;;;;;;;;;;;;;;;;5058170;28;20047;-83
2024/04/07 09:56:24;;;;;;;;;;;;;;;;;;5056358;28;20329;-82
2024/04/07 09:58:50;;;;;;;;;;;;;;;;;;5055322;28;19979;-83
2024/04/07 10:01:21;;;;;;;;;;;;;;;;;;5055824;28;19977;-83
2024/04/07 10:03:47;;;;;;;;;;;;;;;;;;5052153;28;19973;-83
2024/04/07 10:06:14;;;;;;;;;;;;;;;;;;5057694;28;20043;-84
2024/04/07 10:08:40;;;;;;;;;;;;;;;;;;5057066;28;20122;-86
2024/04/07 10:11:07;;;;;;;;;;;;;;;;;;5057229;28;20476;-83
2024/04/07 10:13:33;;;;;;;;;;;;;;;;;;5058168;28;20052;-84
2024/04/07 10:16:00;;;;;;;;;;;;;;;;;;5056379;28;20504;-83
2024/04/07 10:18:26;;;;;;;;;;;;;;;;;;5058213;28;20060;-84
2024/04/07 10:20:54;;;;;;;;;;;;;;;;;;5051920;28;20024;-84
2024/04/07 10:23:19;;;;;;;;;;;;;;;;;;5060814;28;19987;-83
2024/04/07 10:25:46;;;;;;;;;;;;;;;;;;5060174;28;19993;-83
2024/04/07 10:28:12;;;;;;;;;;;;;;;;;;5059539;28;19983;-83
2024/04/07 10:30:39;;;;;;;;;;;;;;;;;;5060032;28;20032;-84
2024/04/07 10:33:06;;;;;;;;;;;;;;;;;;5049264;28;20409;-83
2024/04/07 10:35:33;;;;;;;;;;;;;;;;;;5037714;28;19988;-85
2024/04/07 10:37:59;;;;;;;;;;;;;;;;;;5048019;28;21809;-83
2024/04/07 10:40:25;;;;;;;;;;;;;;;;;;5059823;28;20036;-84
2024/04/07 10:42:51;;;;;;;;;;;;;;;;;;5040681;28;20031;-86
2024/04/07 10:45:20;;;;;;;;;;;;;;;;;;5061033;28;20449;-86
2024/04/07 10:47:46;;;;;;;;;;;;;;;;;;5049429;28;19984;-84
2024/04/07 10:50:14;;;;;;;;;;;;;;;;;;5041602;28;19991;-84
2024/04/07 10:52:40;;;;;;;;;;;;;;;;;;5046924;28;19977;-85
2024/04/07 10:55:07;;;;;;;;;;;;;;;;;;5051973;28;19992;-86
2024/04/07 10:57:33;;;;;;;;;;;;;;;;;;5060771;28;20460;-86
2024/04/07 11:00:00;;;;;;;;;;;;;;;;;;5025131;28;19989;-84
2024/04/07 11:02:26;;;;;;;;;;;;;;;;;;5033669;28;19984;-85
2024/04/07 11:04:53;;;;;;;;;;;;;;;;;;5059739;28;19997;-85
2024/04/07 11:07:19;;;;;;;;;;;;;;;;;;5062123;28;20079;-83
2024/04/07 11:09:46;;;;;;;;;;;;;;;;;;5060704;28;20388;-83
2024/04/07 11:12:12;;;;;;;;;;;;;;;;;;5058036;28;20016;-84
2024/04/07 11:14:39;;;;;;;;;;;;;;;;;;5061074;28;20409;-85
2024/04/07 11:17:05;;;;;;;;;;;;;;;;;;5050613;28;20276;-84
2024/04/07 11:19:32;;;;;;;;;;;;;;;;;;5055487;28;19991;-84
2024/04/07 11:21:58;;;;;;;;;;;;;;;;;;5051915;28;19980;-83
2024/04/07 11:24:25;;;;;;;;;;;;;;;;;;5055563;28;19952;-83
2024/04/07 11:26:51;;;;;;;;;;;;;;;;;;5057614;28;19964;-83
2024/04/07 11:29:18;;;;;;;;;;;;;;;;;;5050772;28;19928;-85
2024/04/07 11:31:44;;;;;;;;;;;;;;;;;;5053180;28;19964;-84
2024/04/07 11:34:11;;;;;;;;;;;;;;;;;;5059973;28;19920;-84
2024/04/07 11:36:37;;;;;;;;;;;;;;;;;;5059944;28;19925;-84
2024/04/07 11:39:04;;;;;;;;;;;;;;;;;;5059719;28;19927;-86
2024/04/07 11:41:30;;;;;;;;;;;;;;;;;;5060384;28;19929;-85
2024/04/07 11:43:57;;;;;;;;;;;;;;;;;;5048154;28;19921;-84
2024/04/07 11:46:23;;;;;;;;;;;;;;;;;;5060275;28;20007;-85
2024/04/07 11:48:50;;;;;;;;;;;;;;;;;;5050235;28;20405;-85
2024/04/07 11:51:16;;;;;;;;;;;;;;;;;;5045617;28;19925;-85
2024/04/07 11:53:47;;;;;;;;;;;;;;;;;;5046420;28;20011;-84
2024/04/07 11:56:13;;;;;;;;;;;;;;;;;;5048283;28;19924;-84
2024/04/07 11:58:40;;;;;;;;;;;;;;;;;;5053249;28;19959;-85
2024/04/07 12:01:06;;;;;;;;;;;;;;;;;;5052629;28;19932;-85
2024/04/07 12:03:33;;;;;;;;;;;;;;;;;;5048593;28;20035;-86
2024/04/07 12:05:59;;;;;;;;;;;;;;;;;;5052737;28;19973;-81
2024/04/07 12:08:26;;;;;;;;;;;;;;;;;;5057830;28;19948;-83
2024/04/07 12:10:52;;;;;;;;;;;;;;;;;;5054738;28;20003;-84
2024/04/07 12:13:18;;;;;;;;;;;;;;;;;;5035538;28;19966;-85
2024/04/07 12:15:44;;;;;;;;;;;;;;;;;;5028770;28;19929;-84
2024/04/07 12:18:13;;;;;;;;;;;;;;;;;;5023802;28;20056;-84
2024/04/07 12:20:39;;;;;;;;;;;;;;;;;;5045584;28;19951;-84
2024/04/07 12:23:13;;;;;;;;;;;;;;;;;;5037640;28;19960;-83
2024/04/07 12:25:39;;;;;;;;;;;;;;;;;;5033344;28;19951;-84
2024/04/07 12:28:05;;;;;;;;;;;;;;;;;;5020814;28;19929;-82
2024/04/07 12:30:31;;;;;;;;;;;;;;;;;;5025571;28;19925;-84
2024/04/07 12:32:59;;;;;;;;;;;;;;;;;;5029984;28;20596;-88
2024/04/07 12:35:25;;;;;;;;;;;;;;;;;;5050562;28;19929;-83
2024/04/07 12:37:53;;;;;;;;;;;;;;;;;;5028644;28;19975;-83
2024/04/07 12:40:19;;;;;;;;;;;;;;;;;;5025048;28;20020;-86
2024/04/07 12:42:46;;;;;;;;;;;;;;;;;;5027662;28;19960;-85
2024/04/07 12:45:12;;;;;;;;;;;;;;;;;;5041364;28;19935;-82
2024/04/07 12:47:39;;;;;;;;;;;;;;;;;;5045169;28;20359;-86
2024/04/07 12:50:05;;;;;;;;;;;;;;;;;;5054407;28;19951;-82
2024/04/07 12:52:35;;;;;;;;;;;;;;;;;;5040100;28;19924;-82
2024/04/07 12:55:01;;;;;;;;;;;;;;;;;;5039796;28;20003;-83
2024/04/07 12:57:28;;;;;;;;;;;;;;;;;;5049513;28;19921;-85
2024/04/07 12:59:54;;;;;;;;;;;;;;;;;;5044949;28;19981;-86
2024/04/07 13:02:21;;;;;;;;;;;;;;;;;;5054415;28;19927;-84
2024/04/07 13:04:47;;;;;;;;;;;;;;;;;;5054717;28;19925;-86
2024/04/07 13:07:14;;;;;;;;;;;;;;;;;;5051232;28;20095;-84
2024/04/07 13:09:40;;;;;;;;;;;;;;;;;;5060020;28;20015;-85
2024/04/07 13:12:08;;;;;;;;;;;;;;;;;;5062133;28;19940;-87
2024/04/07 13:14:35;;;;;;;;;;;;;;;;;;5059581;28;19932;-86
2024/04/07 13:17:02;;;;;;;;;;;;;;;;;;5059550;28;19920;-86
2024/04/07 13:19:28;;;;;;;;;;;;;;;;;;5066418;28;19925;-86
2024/04/07 13:21:55;;;;;;;;;;;;;;;;;;5071332;28;20385;-85
2024/04/07 13:24:20;;;;;;;;;;;;;;;;;;5072474;28;19967;-85
2024/04/07 13:26:47;;;;;;;;;;;;;;;;;;5060634;28;20374;-85
2024/04/07 13:29:14;;;;;;;;;;;;;;;;;;5062991;28;20040;-86
2024/04/07 13:31:41;;;;;;;;;;;;;;;;;;5062593;28;19928;-83
2024/04/07 13:34:07;;;;;;;;;;;;;;;;;;5061817;28;20008;-84
2024/04/07 13:36:34;;;;;;;;;;;;;;;;;;5061169;28;19963;-84
2024/04/07 13:39:00;;;;;;;;;;;;;;;;;;5062050;28;19925;-83
2024/04/07 13:41:27;;;;;;;;;;;;;;;;;;5064210;28;19921;-83
2024/04/07 13:43:53;;;;;;;;;;;;;;;;;;5065224;28;19996;-86
2024/04/07 13:46:20;;;;;;;;;;;;;;;;;;5055853;28;19964;-86
2024/04/07 13:48:46;;;;;;;;;;;;;;;;;;5062661;28;19925;-85
2024/04/07 13:51:13;;;;;;;;;;;;;;;;;;5064911;28;19963;-85
2024/04/07 13:53:38;;;;;;;;;;;;;;;;;;5063576;28;20389;-85
2024/04/07 13:56:05;;;;;;;;;;;;;;;;;;5063247;28;19931;-85
2024/04/07 13:58:31;;;;;;;;;;;;;;;;;;5049483;28;19992;-85
2024/04/07 14:00:59;;;;;;;;;;;;;;;;;;5042291;28;19936;-80
2024/04/07 14:03:25;;;;;;;;;;;;;;;;;;5061187;28;19951;-84
2024/04/07 14:05:52;;;;;;;;;;;;;;;;;;5051713;28;19925;-85
2024/04/07 14:08:19;;;;;;;;;;;;;;;;;;5060385;28;19952;-85
2024/04/07 14:10:45;;;;;;;;;;;;;;;;;;5058112;28;19929;-85
2024/04/07 14:13:12;;;;;;;;;;;;;;;;;;5059816;28;19947;-85
2024/04/07 14:15:38;;;;;;;;;;;;;;;;;;5058349;28;20293;-85
2024/04/07 14:18:05;;;;;;;;;;;;;;;;;;5058533;28;19925;-84
2024/04/07 14:23:12;;;;;;;;;;;;;;;;;;5036858;28;19925;-83
2024/04/07 14:25:38;;;;;;;;;;;;;;;;;;5043422;28;19925;-84
2024/04/07 14:28:05;;;;;;;;;;;;;;;;;;5033693;28;19921;-80
2024/04/07 14:30:31;;;;;;;;;;;;;;;;;;5042712;28;19988;-82
2024/04/07 14:32:58;;;;;;;;;;;;;;;;;;5021830;28;19929;-80
2024/04/07 14:35:24;;;;;;;;;;;;;;;;;;5014728;28;19971;-81
2024/04/07 14:37:51;;;;;;;;;;;;;;;;;;5022348;28;19921;-82
2024/04/07 14:40:17;;;;;;;;;;;;;;;;;;5003505;28;19977;-82
2024/04/07 14:42:44;;;;;;;;;;;;;;;;;;5006128;28;19922;-82
2024/04/07 14:45:10;;;;;;;;;;;;;;;;;;5026985;28;19980;-82
2024/04/07 14:47:37;;;;;;;;;;;;;;;;;;5014817;28;20406;-82
2024/04/07 14:50:03;;;;;;;;;;;;;;;;;;5016921;28;19989;-83
2024/04/07 14:52:30;;;;;;;;;;;;;;;;;;5013711;28;19932;-83
2024/04/07 14:54:56;;;;;;;;;;;;;;;;;;5018456;28;20014;-83
2024/04/07 14:57:23;;;;;;;;;;;;;;;;;;5013783;28;19953;-83
2024/04/07 14:59:49;;;;;;;;;;;;;;;;;;5002065;28;19926;-85
2024/04/07 15:02:16;;;;;;;;;;;;;;;;;;5007073;28;20247;-84
2024/04/07 15:04:42;;;;;;;;;;;;;;;;;;5010360;28;19932;-84
2024/04/07 15:07:09;;;;;;;;;;;;;;;;;;5011934;28;19968;-86
2024/04/07 15:09:35;;;;;;;;;;;;;;;;;;5007473;28;20305;-85
2024/04/07 15:12:03;;;;;;;;;;;;;;;;;;5013304;28;19958;-80
2024/04/07 15:14:29;;;;;;;;;;;;;;;;;;5012596;28;20313;-82
2024/04/07 15:16:56;;;;;;;;;;;;;;;;;;5012478;28;19922;-83
2024/04/07 15:19:22;;;;;;;;;;;;;;;;;;5014679;28;19934;-82
2024/04/07 15:21:49;;;;;;;;;;;;;;;;;;5010614;28;19957;-83
2024/04/07 15:24:15;;;;;;;;;;;;;;;;;;4997445;28;19930;-86
2024/04/07 15:26:42;;;;;;;;;;;;;;;;;;5011064;28;20402;-84
2024/04/07 15:29:08;;;;;;;;;;;;;;;;;;5008508;28;19964;-83
2024/04/07 15:31:35;;;;;;;;;;;;;;;;;;5015014;28;19928;-83
2024/04/07 15:34:01;;;;;;;;;;;;;;;;;;5006488;28;19926;-83
2024/04/07 15:36:28;;;;;;;;;;;;;;;;;;5007367;28;19996;-84
2024/04/07 15:38:53;;;;;;;;;;;;;;;;;;4975240;28;20012;-84
2024/04/07 15:41:20;;;;;;;;;;;;;;;;;;4987127;28;20619;-84
2024/04/07 15:43:47;;;;;;;;;;;;;;;;;;5020171;28;20012;-84
2024/04/07 15:46:14;;;;;;;;;;;;;;;;;;5002633;28;19951;-81
2024/04/07 15:48:43;;;;;;;;;;;;;;;;;;4987665;28;19926;-84
2024/04/07 15:51:10;;;;;;;;;;;;;;;;;;4978869;28;19928;-85
2024/04/07 15:53:36;;;;;;;;;;;;;;;;;;4992908;28;19929;-85
2024/04/07 16:01:28;;;;;;;;;;;;;;;;;;5016570;28;19925;-85
2024/04/07 16:03:54;;;;;;;;;;;;;;;;;;4955229;28;19968;-84
2024/04/07 16:06:23;;;;;;;;;;;;;;;;;;5005867;28;20310;-86
2024/04/07 16:08:49;;;;;;;;;;;;;;;;;;5004162;28;19933;-85
2024/04/07 16:11:16;;;;;;;;;;;;;;;;;;5000768;28;19929;-84
2024/04/07 16:13:43;;;;;;;;;;;;;;;;;;5011988;28;19948;-85
2024/04/07 16:16:10;;;;;;;;;;;;;;;;;;5002217;28;19952;-82
2024/04/07 16:18:36;;;;;;;;;;;;;;;;;;4990610;28;19930;-83
2024/04/07 16:21:03;;;;;;;;;;;;;;;;;;5003727;28;19971;-81
2024/04/07 16:23:29;;;;;;;;;;;;;;;;;;5010038;28;19961;-82
2024/04/07 16:25:56;;;;;;;;;;;;;;;;;;5018723;28;19963;-83
2024/04/07 16:28:23;;;;;;;;;;;;;;;;;;5022437;28;19961;-82
2024/04/07 16:30:49;;;;;;;;;;;;;;;;;;5023673;28;19997;-83
2024/04/07 16:33:21;;;;;;;;;;;;;;;;;;5016577;28;20290;-83
2024/04/07 16:35:47;;;;;;;;;;;;;;;;;;5006875;28;19941;-84
2024/04/07 16:38:17;;;;;;;;;;;;;;;;;;5014385;28;19918;-83
2024/04/07 16:40:43;;;;;;;;;;;;;;;;;;5007388;28;19969;-84
2024/04/07 16:43:10;;;;;;;;;;;;;;;;;;5009981;28;19918;-82
2024/04/07 16:45:37;;;;;;;;;;;;;;;;;;4970644;28;19980;-83
2024/04/07 16:48:10;;;;;;;;;;;;;;;;;;4976102;28;19925;-86
2024/04/07 16:50:36;;;;;;;;;;;;;;;;;;5008515;28;19929;-82
2024/04/07 16:53:03;;;;;;;;;;;;;;;;;;4967969;28;19930;-82